Time;durP1;ratioP1;P1;durP2;ratioP2;P2;SDS_P1;SDS_P2;PMS_P1;PMS_P2;Temp;Humidity;BMP_temperature;BMP_pressure;BME280_temperature;BME280_humidity;BME280_pressure;Samples;Min_cycle;Max_cycle;Signal;HPM_P1;HPM_P2
2022/04/18 00:01:49;;;;;;;13.38;9.40;;;11.50;85.20;;;;;;5074064;28;20031;-72
2022/04/18 00:04:15;;;;;;;12.32;8.50;;;11.50;85.60;;;;;;5073717;28;20515;-73
2022/04/18 00:06:41;;;;;;;15.25;9.35;;;11.50;86.30;;;;;;5073900;28;20055;-73
2022/04/18 00:09:07;;;;;;;14.15;9.85;;;11.40;86.90;;;;;;5056606;28;20044;-72
2022/04/18 00:11:33;;;;;;;16.08;9.30;;;11.40;87.70;;;;;;5074202;28;20490;-73
2022/04/18 00:13:59;;;;;;;13.68;9.57;;;11.40;88.30;;;;;;5074124;28;20017;-75
2022/04/18 00:16:24;;;;;;;14.35;9.13;;;11.30;88.90;;;;;;5069849;28;20031;-72
2022/04/18 00:18:51;;;;;;;14.05;9.55;;;11.30;89.70;;;;;;5066425;28;20056;-73
2022/04/18 00:21:17;;;;;;;14.77;9.93;;;11.20;90.00;;;;;;5073861;28;20027;-72
2022/04/18 00:23:43;;;;;;;15.45;10.13;;;11.20;90.40;;;;;;5054732;28;20381;-72
2022/04/18 00:26:09;;;;;;;15.50;10.02;;;11.10;90.80;;;;;;5065523;28;20038;-73
2022/04/18 00:28:35;;;;;;;18.98;10.55;;;11.10;91.00;;;;;;5073729;28;20021;-72
2022/04/18 00:31:00;;;;;;;15.18;10.43;;;11.10;91.40;;;;;;5073871;28;20078;-74
2022/04/18 00:33:26;;;;;;;17.15;9.82;;;11.10;91.70;;;;;;5073545;28;20106;-72
2022/04/18 00:35:52;;;;;;;15.50;9.93;;;11.00;91.90;;;;;;5073110;28;20119;-72
2022/04/18 00:38:18;;;;;;;17.70;10.55;;;11.00;92.20;;;;;;5073641;28;20059;-72
2022/04/18 00:40:44;;;;;;;18.70;10.30;;;11.00;92.60;;;;;;5073656;28;20036;-72
2022/04/18 00:43:09;;;;;;;14.77;10.07;;;10.90;92.90;;;;;;5073397;28;20074;-73
2022/04/18 00:45:35;;;;;;;16.08;10.23;;;10.90;93.30;;;;;;5073188;28;20020;-72
2022/04/18 00:48:01;;;;;;;15.68;10.43;;;10.80;93.70;;;;;;5073343;28;20028;-74
2022/04/18 00:50:29;;;;;;;15.57;9.93;;;10.80;93.90;;;;;;5073259;28;20032;-73
2022/04/18 00:52:55;;;;;;;13.13;9.57;;;10.80;94.30;;;;;;5073331;28;20063;-73
2022/04/18 00:55:23;;;;;;;14.77;10.15;;;10.70;94.60;;;;;;5071860;28;20024;-72
2022/04/18 00:57:51;;;;;;;15.45;10.07;;;10.70;94.90;;;;;;5072842;28;20050;-73
2022/04/18 01:00:16;;;;;;;14.77;9.82;;;10.70;95.20;;;;;;5073265;28;20497;-73
2022/04/18 01:02:42;;;;;;;15.38;10.30;;;10.70;95.40;;;;;;5072986;28;20028;-72
2022/04/18 01:05:08;;;;;;;13.63;9.73;;;10.60;95.60;;;;;;5072878;28;20515;-74
2022/04/18 01:07:34;;;;;;;16.00;10.30;;;10.60;95.80;;;;;;5073007;28;20090;-73
2022/04/18 01:10:02;;;;;;;14.77;10.98;;;10.50;96.00;;;;;;5072592;28;20028;-72
2022/04/18 01:12:28;;;;;;;15.35;10.02;;;10.50;96.50;;;;;;5072413;28;20031;-73
2022/04/18 01:14:53;;;;;;;16.40;11.45;;;10.40;97.00;;;;;;5072681;28;20028;-72
2022/04/18 01:17:19;;;;;;;15.10;10.82;;;10.40;97.40;;;;;;5071689;28;20052;-73
2022/04/18 01:19:45;;;;;;;16.00;10.68;;;10.30;97.60;;;;;;5067378;28;20513;-72
2022/04/18 01:22:12;;;;;;;18.88;10.75;;;10.30;97.90;;;;;;5072328;28;20021;-72
2022/04/18 01:30:07;;;;;;;16.83;10.85;;;10.10;98.90;;;;;;5072765;28;20034;-73
2022/04/18 01:32:33;;;;;;;17.10;10.70;;;10.10;99.50;;;;;;5054460;28;20037;-73
2022/04/18 01:34:59;;;;;;;16.40;11.07;;;10.00;99.90;;;;;;5072493;28;20043;-72
2022/04/18 01:37:25;;;;;;;18.70;10.98;;;10.00;99.90;;;;;;5071851;28;20452;-74
2022/04/18 01:39:50;;;;;;;15.27;10.50;;;10.00;99.90;;;;;;5072770;28;20024;-73
2022/04/18 01:42:16;;;;;;;13.38;10.23;;;10.00;99.90;;;;;;5072415;28;20461;-72
2022/04/18 01:44:41;;;;;;;16.33;10.15;;;10.00;99.90;;;;;;5072082;28;20494;-73
2022/04/18 01:47:07;;;;;;;13.40;10.00;;;10.00;99.90;;;;;;5072532;28;20111;-72
2022/04/18 01:49:33;;;;;;;15.63;9.93;;;9.90;99.90;;;;;;5071989;28;20024;-72
2022/04/18 01:51:58;;;;;;;16.27;10.05;;;9.90;99.90;;;;;;5071897;28;20044;-72
2022/04/18 01:54:24;;;;;;;19.90;10.38;;;9.90;99.90;;;;;;5071792;28;20036;-72
2022/04/18 01:56:50;;;;;;;14.82;9.82;;;9.80;99.90;;;;;;5072220;28;20043;-73
2022/04/18 01:59:15;;;;;;;14.77;9.40;;;9.80;99.90;;;;;;5071909;28;20016;-73
2022/04/18 02:01:41;;;;;;;13.45;9.48;;;9.80;99.90;;;;;;5072106;28;20229;-72
2022/04/18 02:04:07;;;;;;;13.75;9.73;;;9.80;99.90;;;;;;5072052;28;20029;-72
2022/04/18 02:06:33;;;;;;;16.40;9.55;;;9.80;99.90;;;;;;5071462;28;20021;-72
2022/04/18 02:08:59;;;;;;;13.80;9.45;;;9.80;99.90;;;;;;5071551;28;20089;-72
2022/04/18 02:11:25;;;;;;;15.35;9.35;;;9.80;99.90;;;;;;5071442;28;20072;-72
2022/04/18 02:13:52;;;;;;;13.43;8.88;;;9.80;99.90;;;;;;5071586;28;20028;-72
2022/04/18 02:16:18;;;;;;;12.95;8.82;;;9.70;99.90;;;;;;5071335;28;20100;-73
2022/04/18 02:18:43;;;;;;;13.32;9.20;;;9.70;99.90;;;;;;5071206;28;20367;-73
2022/04/18 02:21:11;;;;;;;15.43;9.50;;;9.70;99.90;;;;;;5071507;28;20400;-72
2022/04/18 02:23:38;;;;;;;17.35;9.27;;;9.70;99.90;;;;;;5071297;28;20020;-73
2022/04/18 02:26:04;;;;;;;13.15;9.10;;;9.70;99.90;;;;;;5070798;28;20035;-72
2022/04/18 02:28:30;;;;;;;12.40;8.23;;;9.70;99.90;;;;;;5053269;28;20025;-73
2022/04/18 02:30:57;;;;;;;13.20;8.85;;;9.60;99.90;;;;;;5051465;28;20029;-72
2022/04/18 02:33:23;;;;;;;16.23;8.68;;;9.60;99.90;;;;;;5070721;28;20040;-72
2022/04/18 02:35:48;;;;;;;12.32;8.50;;;9.50;99.90;;;;;;5070976;28;20437;-73
2022/04/18 02:38:14;;;;;;;11.88;8.55;;;9.50;99.90;;;;;;5070882;28;20125;-73
2022/04/18 02:40:39;;;;;;;10.57;7.78;;;9.50;99.90;;;;;;5070948;28;20388;-72
2022/04/18 02:43:05;;;;;;;11.30;7.85;;;9.50;99.90;;;;;;5071105;28;20024;-74
2022/04/18 02:45:32;;;;;;;11.57;7.72;;;9.50;99.90;;;;;;5070893;28;20027;-72
2022/04/18 02:47:58;;;;;;;11.13;7.88;;;9.50;99.90;;;;;;5052660;28;20043;-73
2022/04/18 02:50:25;;;;;;;12.23;7.60;;;9.40;99.90;;;;;;5071215;28;20054;-73
2022/04/18 02:52:50;;;;;;;11.00;7.35;;;9.40;99.90;;;;;;5071251;28;20400;-72
2022/04/18 02:55:16;;;;;;;11.27;7.05;;;9.40;99.90;;;;;;5070620;28;20028;-72
2022/04/18 02:57:41;;;;;;;9.88;7.05;;;9.40;99.90;;;;;;5070593;28;20519;-72
2022/04/18 03:00:09;;;;;;;10.48;6.72;;;9.40;99.90;;;;;;5070536;28;20036;-73
2022/04/18 03:02:35;;;;;;;8.85;6.18;;;9.40;99.90;;;;;;5070853;28;20036;-72
2022/04/18 03:05:01;;;;;;;10.02;6.32;;;9.40;99.90;;;;;;5070454;28;20037;-73
2022/04/18 03:07:26;;;;;;;8.80;5.93;;;9.40;99.90;;;;;;5070283;28;20077;-74
2022/04/18 03:09:52;;;;;;;8.45;6.10;;;9.30;99.90;;;;;;5070319;28;20020;-73
2022/04/18 03:12:18;;;;;;;7.18;5.38;;;9.30;99.90;;;;;;5070737;28;20510;-71
2022/04/18 03:14:43;;;;;;;7.32;4.80;;;9.30;99.90;;;;;;5070446;28;20028;-71
2022/04/18 03:17:10;;;;;;;6.90;4.95;;;9.30;99.90;;;;;;5070314;28;20028;-71
2022/04/18 03:19:35;;;;;;;7.35;4.53;;;9.30;99.90;;;;;;5073787;28;20058;-71
2022/04/18 03:22:01;;;;;;;8.25;4.90;;;9.30;99.90;;;;;;5074491;28;20020;-71
2022/04/18 03:24:27;;;;;;;6.78;4.70;;;9.30;99.90;;;;;;5074369;28;20431;-72
2022/04/18 03:26:52;;;;;;;7.38;4.65;;;9.30;99.90;;;;;;5056118;28;20024;-72
2022/04/18 03:29:18;;;;;;;5.75;4.40;;;9.30;99.90;;;;;;5074064;28;20070;-72
2022/04/18 03:31:43;;;;;;;8.50;4.45;;;9.30;99.50;;;;;;5074615;28;20108;-73
2022/04/18 03:34:09;;;;;;;5.55;4.10;;;9.30;99.30;;;;;;5074143;28;20028;-71
2022/04/18 03:42:03;;;;;;;5.30;3.58;;;9.30;98.10;;;;;;5061738;28;20027;-71
2022/04/18 03:44:28;;;;;;;5.20;3.42;;;9.30;97.90;;;;;;5073983;28;20392;-72
2022/04/18 03:46:54;;;;;;;6.65;3.70;;;9.30;97.60;;;;;;5059913;28;20032;-72
2022/04/18 03:49:20;;;;;;;4.95;3.67;;;9.30;97.50;;;;;;5068870;28;20037;-72
2022/04/18 03:51:46;;;;;;;5.45;3.25;;;9.30;97.30;;;;;;5073872;28;20032;-73
2022/04/18 03:54:11;;;;;;;4.75;3.33;;;9.30;97.10;;;;;;5073890;28;20384;-72
2022/04/18 03:56:37;;;;;;;5.72;3.53;;;9.30;97.00;;;;;;5073700;28;20081;-72
2022/04/18 03:59:02;;;;;;;4.65;3.10;;;9.30;97.00;;;;;;5073391;28;20020;-72
2022/04/18 04:01:28;;;;;;;4.47;3.38;;;9.30;97.00;;;;;;5073721;28;20464;-72
2022/04/18 04:03:54;;;;;;;7.15;3.45;;;9.30;97.00;;;;;;5073881;28;20024;-72
2022/04/18 04:06:19;;;;;;;4.32;3.22;;;9.30;97.10;;;;;;5073997;28;20483;-71
2022/04/18 04:08:45;;;;;;;4.55;3.30;;;9.30;97.10;;;;;;5073393;28;20024;-71
2022/04/18 04:11:11;;;;;;;6.03;3.15;;;9.20;97.30;;;;;;5073522;28;20033;-72
2022/04/18 04:13:36;;;;;;;4.90;3.00;;;9.20;97.40;;;;;;5073745;28;20024;-72
2022/04/18 04:16:02;;;;;;;4.65;3.50;;;9.10;97.40;;;;;;5073306;28;20028;-72
2022/04/18 04:18:27;;;;;;;4.95;3.00;;;9.10;97.70;;;;;;5072720;28;20076;-73
2022/04/18 04:20:53;;;;;;;4.75;2.83;;;9.10;97.70;;;;;;5072746;28;20057;-72
2022/04/18 04:23:18;;;;;;;4.22;3.00;;;9.10;97.70;;;;;;5073900;28;20079;-73
2022/04/18 04:25:44;;;;;;;5.78;3.20;;;9.10;97.70;;;;;;5073433;28;20032;-72
2022/04/18 04:28:11;;;;;;;5.22;3.10;;;9.00;97.80;;;;;;5072965;28;20055;-73
2022/04/18 04:30:36;;;;;;;4.53;3.00;;;9.00;97.90;;;;;;5072810;28;20079;-72
2022/04/18 04:33:02;;;;;;;4.38;3.15;;;9.00;98.20;;;;;;5072819;28;20068;-73
2022/04/18 04:35:27;;;;;;;4.85;3.15;;;9.00;98.30;;;;;;5073257;28;20040;-72
2022/04/18 04:37:53;;;;;;;4.53;3.20;;;9.00;98.40;;;;;;5073094;28;20473;-72
2022/04/18 04:40:18;;;;;;;6.45;3.33;;;8.90;98.70;;;;;;5072596;28;20503;-72
2022/04/18 04:42:44;;;;;;;5.68;3.10;;;8.90;99.00;;;;;;5073264;28;20032;-72
2022/04/18 04:45:09;;;;;;;6.38;3.08;;;8.90;99.30;;;;;;5072646;28;20542;-73
2022/04/18 04:47:35;;;;;;;4.68;3.10;;;8.90;99.60;;;;;;5072724;28;20038;-72
2022/04/18 04:50:00;;;;;;;5.95;3.40;;;8.90;99.80;;;;;;5072572;28;20032;-72
2022/04/18 04:52:26;;;;;;;4.45;3.13;;;8.90;99.90;;;;;;5072708;28;20434;-72
2022/04/18 04:54:52;;;;;;;5.05;3.08;;;8.80;99.90;;;;;;5072667;28;20050;-72
2022/04/18 04:57:17;;;;;;;4.57;3.13;;;8.80;99.90;;;;;;5072244;28;20102;-73
2022/04/18 04:59:43;;;;;;;6.00;3.38;;;8.90;99.90;;;;;;5072345;28;20031;-73
2022/04/18 05:02:08;;;;;;;4.38;3.00;;;8.90;99.90;;;;;;5072402;28;20017;-72
2022/04/18 05:04:34;;;;;;;3.55;2.72;;;8.90;99.90;;;;;;5072748;28;20476;-73
2022/04/18 05:07:00;;;;;;;5.47;2.80;;;8.90;99.90;;;;;;5072473;28;20036;-72
2022/04/18 05:09:25;;;;;;;3.60;2.72;;;8.90;99.70;;;;;;5071863;28;20388;-73
2022/04/18 05:11:52;;;;;;;3.75;2.60;;;8.90;99.10;;;;;;5054342;28;20020;-72
2022/04/18 05:14:18;;;;;;;3.50;2.80;;;8.90;98.80;;;;;;5072428;28;20031;-72
2022/04/18 05:16:44;;;;;;;4.80;2.85;;;9.00;98.10;;;;;;5072103;28;20021;-72
2022/04/18 05:19:09;;;;;;;4.30;2.70;;;9.00;97.40;;;;;;5072298;28;20230;-72
2022/04/18 05:21:35;;;;;;;5.43;2.90;;;9.10;97.00;;;;;;5072152;28;20395;-73
2022/04/18 05:24:01;;;;;;;4.78;2.72;;;9.10;96.60;;;;;;5072070;28;20532;-73
2022/04/18 05:26:27;;;;;;;4.05;2.70;;;9.20;96.10;;;;;;5072401;28;20013;-73
2022/04/18 05:28:52;;;;;;;3.92;2.55;;;9.20;95.90;;;;;;5071682;28;20078;-72
2022/04/18 05:31:19;;;;;;;4.32;2.67;;;9.30;95.50;;;;;;5071781;28;20027;-72
2022/04/18 05:33:45;;;;;;;5.57;2.78;;;9.30;95.30;;;;;;5071896;28;20039;-72
2022/04/18 05:36:10;;;;;;;3.78;2.80;;;9.40;95.10;;;;;;5071863;28;20079;-72
2022/04/18 05:38:36;;;;;;;3.63;2.47;;;9.40;95.10;;;;;;5071822;28;20052;-73
2022/04/18 05:41:02;;;;;;;3.65;2.72;;;9.40;95.00;;;;;;5071157;28;20540;-73
2022/04/18 05:43:28;;;;;;;5.03;3.03;;;9.40;94.90;;;;;;5072252;28;20031;-72
2022/04/18 05:45:54;;;;;;;3.15;2.55;;;9.50;94.80;;;;;;5071653;28;20028;-72
2022/04/18 05:48:19;;;;;;;4.47;2.83;;;9.50;94.80;;;;;;5071838;28;20437;-74
2022/04/18 05:50:45;;;;;;;7.15;3.03;;;9.50;94.60;;;;;;5071675;28;20031;-73
2022/04/18 05:53:15;;;;;;;3.78;2.88;;;9.60;94.60;;;;;;5071654;28;20025;-73
2022/04/18 05:55:41;;;;;;;7.28;2.83;;;9.60;94.30;;;;;;5071320;28;20025;-73
2022/04/18 05:58:06;;;;;;;4.47;2.80;;;9.60;94.10;;;;;;5071544;28;20027;-72
2022/04/18 06:00:32;;;;;;;6.05;2.95;;;9.70;94.10;;;;;;5071747;28;20060;-73
2022/04/18 06:02:59;;;;;;;4.60;2.90;;;9.70;93.80;;;;;;5071731;28;20052;-74
2022/04/18 06:05:24;;;;;;;4.30;3.10;;;9.80;93.60;;;;;;5071596;28;20024;-72
2022/04/18 06:07:50;;;;;;;5.57;3.22;;;9.80;93.50;;;;;;5071317;28;20444;-74
2022/04/18 06:10:16;;;;;;;4.72;3.00;;;9.80;93.40;;;;;;5070937;28;20036;-72
2022/04/18 06:12:41;;;;;;;5.40;3.17;;;9.90;93.20;;;;;;5071059;28;20027;-72
2022/04/18 06:15:07;;;;;;;4.20;3.05;;;10.00;93.10;;;;;;5067204;28;20025;-73
2022/04/18 06:17:34;;;;;;;5.07;3.00;;;10.00;92.90;;;;;;5070414;28;20491;-73
2022/04/18 06:20:00;;;;;;;4.95;3.22;;;10.10;93.00;;;;;;5071450;28;20087;-74
2022/04/18 06:22:26;;;;;;;3.90;2.92;;;10.20;92.80;;;;;;5071031;28;20020;-72
2022/04/18 06:24:51;;;;;;;5.05;2.95;;;10.20;92.60;;;;;;5071413;28;20036;-73
2022/04/18 06:27:17;;;;;;;4.18;2.80;;;10.30;92.50;;;;;;5071132;28;20111;-73
2022/04/18 06:29:42;;;;;;;6.75;3.15;;;10.40;92.30;;;;;;5070744;28;20055;-72
2022/04/18 06:32:08;;;;;;;5.25;2.83;;;10.40;92.20;;;;;;5071226;28;20100;-73
2022/04/18 06:34:34;;;;;;;4.10;2.60;;;10.50;92.10;;;;;;5053277;28;20031;-73
2022/04/18 06:36:59;;;;;;;5.40;3.47;;;10.60;92.10;;;;;;5070565;28;20404;-73
2022/04/18 06:39:25;;;;;;;3.88;3.03;;;10.70;92.20;;;;;;5070329;28;20028;-74
2022/04/18 06:41:51;;;;;;;5.90;3.03;;;10.70;92.30;;;;;;5070686;28;20020;-72
2022/04/18 06:44:16;;;;;;;5.78;2.92;;;10.80;92.60;;;;;;5070975;28;20024;-73
2022/04/18 06:46:42;;;;;;;4.28;2.90;;;10.80;92.40;;;;;;5070942;28;20419;-72
2022/04/18 06:49:07;;;;;;;6.35;2.90;;;10.90;92.30;;;;;;5071262;28;20047;-73
2022/04/18 06:51:33;;;;;;;5.47;3.13;;;11.00;91.90;;;;;;5071260;28;20082;-73
2022/04/18 06:53:58;;;;;;;4.88;2.83;;;11.10;91.40;;;;;;5071260;28;20383;-73
2022/04/18 06:59:08;;;;;;;4.40;2.50;;;11.30;90.70;;;;;;5055732;28;20094;-73
2022/04/18 07:01:34;;;;;;;4.70;2.75;;;11.40;89.40;;;;;;5068557;28;20395;-73
2022/04/18 07:03:59;;;;;;;3.92;2.80;;;11.50;87.90;;;;;;5056895;28;20112;-73
2022/04/18 07:06:25;;;;;;;4.70;2.88;;;11.60;86.20;;;;;;5070284;28;20025;-75
2022/04/18 07:08:51;;;;;;;3.83;2.63;;;11.70;84.10;;;;;;5069537;28;20017;-73
2022/04/18 07:11:16;;;;;;;4.70;2.90;;;11.90;82.30;;;;;;5069647;28;20029;-73
2022/04/18 07:13:42;;;;;;;3.30;2.50;;;12.00;81.30;;;;;;5070359;28;20032;-73
2022/04/18 07:16:07;;;;;;;3.97;2.45;;;12.10;79.00;;;;;;5070565;28;20048;-73
2022/04/18 07:18:34;;;;;;;5.00;2.58;;;12.30;76.70;;;;;;5069611;28;20130;-73
2022/04/18 07:20:59;;;;;;;3.70;2.33;;;12.40;72.40;;;;;;5070156;28;20091;-73
2022/04/18 07:23:25;;;;;;;5.13;2.42;;;12.60;68.80;;;;;;5069926;28;20056;-73
2022/04/18 07:25:51;;;;;;;4.93;2.75;;;12.70;68.00;;;;;;5069659;28;20333;-74
2022/04/18 07:28:16;;;;;;;5.30;2.45;;;12.80;65.60;;;;;;5069689;28;20020;-73
2022/04/18 07:30:42;;;;;;;4.25;2.53;;;12.90;64.30;;;;;;5069670;28;20075;-73
2022/04/18 07:33:07;;;;;;;4.35;2.80;;;13.10;63.70;;;;;;5071205;28;20032;-72
2022/04/18 07:35:34;;;;;;;3.97;2.63;;;13.20;62.40;;;;;;5071097;28;20053;-73
2022/04/18 07:41:04;;;;;;;3.03;2.50;;;13.40;62.10;;;;;;4989058;28;20454;-72
2022/04/18 07:43:37;;;;;;;3.80;2.65;;;13.60;59.90;;;;;;4989098;28;20026;-73
2022/04/18 07:46:03;;;;;;;3.35;2.53;;;13.70;59.60;;;;;;4989285;28;20512;-73
2022/04/18 07:48:30;;;;;;;4.75;2.92;;;13.70;59.10;;;;;;4989702;28;20098;-74
2022/04/18 07:53:40;;;;;;;7.13;2.67;;;13.90;58.60;;;;;;4988493;28;20053;-73
2022/04/18 07:56:05;;;;;;;5.13;2.88;;;14.00;57.80;;;;;;4988608;28;20034;-73
2022/04/18 07:58:31;;;;;;;4.55;2.88;;;14.10;57.30;;;;;;4989242;28;20433;-74
2022/04/18 08:00:57;;;;;;;4.20;2.90;;;14.20;56.80;;;;;;4985656;28;20538;-73
2022/04/18 08:03:22;;;;;;;4.70;2.83;;;14.40;57.20;;;;;;4989095;28;20505;-76
2022/04/18 08:05:48;;;;;;;4.63;2.95;;;14.60;56.40;;;;;;4992748;28;20526;-73
2022/04/18 08:08:13;;;;;;;3.22;2.83;;;14.70;55.70;;;;;;4987616;28;20026;-72
2022/04/18 08:10:39;;;;;;;5.95;2.90;;;14.90;54.70;;;;;;4990479;28;20391;-73
2022/04/18 08:13:05;;;;;;;7.45;2.80;;;14.90;54.80;;;;;;5073538;28;20472;-73
2022/04/18 08:15:31;;;;;;;7.40;3.10;;;15.00;54.90;;;;;;5073947;28;20037;-73
2022/04/18 08:17:57;;;;;;;3.92;2.90;;;15.00;54.70;;;;;;5072923;28;20067;-75
2022/04/18 08:20:23;;;;;;;4.53;3.17;;;15.10;54.30;;;;;;5073788;28;20131;-73
2022/04/18 08:22:49;;;;;;;5.07;3.22;;;15.20;54.30;;;;;;5072137;28;20028;-74
2022/04/18 08:25:15;;;;;;;5.00;3.28;;;15.30;54.10;;;;;;5052969;28;20073;-73
2022/04/18 08:27:41;;;;;;;3.33;2.90;;;15.40;54.50;;;;;;5061591;28;20043;-73
2022/04/18 08:30:07;;;;;;;4.72;3.42;;;15.50;54.50;;;;;;5072176;28;20473;-73
2022/04/18 08:32:36;;;;;;;5.97;3.40;;;15.60;54.00;;;;;;5073391;28;20025;-72
2022/04/18 08:35:01;;;;;;;5.65;3.40;;;15.80;53.40;;;;;;5055034;28;20032;-73
2022/04/18 08:37:27;;;;;;;4.32;3.17;;;15.80;53.00;;;;;;5072710;28;20039;-74
2022/04/18 08:39:53;;;;;;;5.60;3.45;;;15.90;53.00;;;;;;5073806;28;20024;-73
2022/04/18 08:42:21;;;;;;;5.53;3.58;;;15.90;53.00;;;;;;5076693;28;20033;-76
2022/04/18 08:44:51;;;;;;;10.95;7.65;;;16.00;53.10;;;;;;5076600;28;20032;-74
2022/04/18 08:52:52;;;;;;;12.30;8.95;;;16.30;53.20;;;;;;5072904;28;20086;-74
2022/04/18 08:55:18;;;;;;;22.67;12.10;;;16.40;53.30;;;;;;5073091;28;20037;-74
2022/04/18 08:57:43;;;;;;;14.07;9.13;;;16.50;53.20;;;;;;5072252;28;20027;-75
2022/04/18 09:00:10;;;;;;;12.23;8.20;;;16.70;53.30;;;;;;5073023;28;20103;-75
2022/04/18 09:02:36;;;;;;;11.13;7.20;;;16.80;52.80;;;;;;5073005;28;20050;-75
2022/04/18 09:05:02;;;;;;;5.88;4.22;;;16.90;52.60;;;;;;5072732;28;20085;-75
2022/04/18 09:07:28;;;;;;;4.25;3.20;;;17.00;51.50;;;;;;5073298;28;20119;-75
2022/04/18 09:09:55;;;;;;;5.75;3.50;;;17.10;50.90;;;;;;5054279;28;20539;-73
2022/04/18 09:12:26;;;;;;;5.10;3.00;;;17.10;50.30;;;;;;5072196;28;20135;-72
2022/04/18 09:14:52;;;;;;;8.52;5.32;;;17.20;49.40;;;;;;5071879;28;20024;-72
2022/04/18 09:17:34;;;;;;;14.10;10.50;;;17.20;49.00;;;;;;5071002;28;20460;-74
2022/04/18 09:20:13;;;;;;;11.75;7.63;;;17.20;48.40;;;;;;5071551;28;20400;-72
2022/04/18 09:22:47;;;;;;;8.07;4.25;;;17.30;47.90;;;;;;5053241;28;20120;-74
2022/04/18 09:25:16;;;;;;;8.98;3.75;;;17.30;47.50;;;;;;5070522;28;20031;-78
2022/04/18 09:27:54;;;;;;;3.78;3.30;;;17.30;47.70;;;;;;5069939;28;20039;-76
2022/04/18 09:30:21;;;;;;;7.50;6.10;;;17.30;47.70;;;;;;5069513;28;20141;-74
2022/04/18 09:33:05;;;;;;;25.85;17.63;;;17.30;47.60;;;;;;5070909;28;20031;-76
2022/04/18 09:35:32;;;;;;;11.48;9.35;;;17.30;47.90;;;;;;5071620;28;20032;-75
2022/04/18 09:38:06;;;;;;;7.63;6.22;;;17.30;47.90;;;;;;5071456;28;20036;-74
2022/04/18 09:40:36;;;;;;;5.82;3.90;;;17.40;48.20;;;;;;5072288;28;20107;-75
2022/04/18 09:43:02;;;;;;;6.10;4.00;;;17.40;48.40;;;;;;5071886;28;20033;-75
2022/04/18 09:45:28;;;;;;;5.75;3.55;;;17.40;48.20;;;;;;5071926;28;20082;-73
2022/04/18 09:47:58;;;;;;;13.50;8.20;;;17.40;48.20;;;;;;5070796;28;20029;-75
2022/04/18 09:53:24;;;;;;;6.82;5.32;;;17.40;47.80;;;;;;5064909;28;20130;-75
2022/04/18 09:55:51;;;;;;;5.00;3.67;;;17.40;47.70;;;;;;5071630;28;20044;-75
2022/04/18 09:58:17;;;;;;;7.55;3.50;;;17.40;47.90;;;;;;5069561;28;20047;-73
2022/04/18 10:00:43;;;;;;;4.38;2.80;;;17.60;47.90;;;;;;5071272;28;20376;-74
2022/04/18 10:03:09;;;;;;;4.03;3.15;;;17.70;47.30;;;;;;5071243;28;20070;-74
2022/04/18 10:05:36;;;;;;;3.00;2.70;;;17.90;47.00;;;;;;5070217;28;20060;-74
2022/04/18 10:08:04;;;;;;;5.82;2.60;;;18.00;46.40;;;;;;5070349;28;20050;-72
2022/04/18 10:10:33;;;;;;;6.38;2.78;;;18.20;45.60;;;;;;5071063;28;20048;-73
2022/04/18 10:12:58;;;;;;;4.18;2.47;;;18.30;44.50;;;;;;5070557;28;20036;-73
2022/04/18 10:15:26;;;;;;;5.10;2.47;;;18.40;44.40;;;;;;5052379;28;20028;-74
2022/04/18 10:17:52;;;;;;;14.90;8.07;;;18.60;43.80;;;;;;5052195;28;20048;-74
2022/04/18 10:20:36;;;;;;;21.73;15.93;;;18.80;43.80;;;;;;5071197;28;20357;-75
2022/04/18 10:23:20;;;;;;;30.35;23.73;;;18.90;42.70;;;;;;5069735;28;20459;-72
2022/04/18 10:26:02;;;;;;;35.90;25.17;;;19.10;42.40;;;;;;5068830;28;20039;-72
2022/04/18 10:28:36;;;;;;;9.00;3.50;;;19.20;42.60;;;;;;5068037;28;20523;-75
2022/04/18 10:31:07;;;;;;;7.63;3.13;;;19.40;42.30;;;;;;5069851;28;20090;-74
2022/04/18 10:33:34;;;;;;;4.80;2.90;;;19.60;42.30;;;;;;5070477;28;20033;-74
2022/04/18 10:36:05;;;;;;;6.63;2.80;;;19.80;42.20;;;;;;5052117;28;20055;-74
2022/04/18 10:38:33;;;;;;;5.70;2.75;;;19.90;41.80;;;;;;5070440;28;20380;-75
2022/04/18 10:41:18;;;;;;;7.63;3.40;;;20.00;41.60;;;;;;5069656;28;20021;-75
2022/04/18 10:43:53;;;;;;;6.07;3.92;;;20.20;42.30;;;;;;5070838;28;20058;-74
2022/04/18 10:46:20;;;;;;;15.27;8.02;;;20.30;40.60;;;;;;5070718;28;20413;-76
2022/04/18 10:48:56;;;;;;;4.53;3.45;;;20.30;40.70;;;;;;5070695;28;20430;-76
2022/04/18 10:51:41;;;;;;;8.02;4.78;;;20.40;40.20;;;;;;5053358;28;20087;-77
2022/04/18 10:54:09;;;;;;;21.38;15.73;;;20.50;39.80;;;;;;5071210;28;20040;-75
2022/04/18 10:57:01;;;;;;;21.38;15.48;;;20.60;39.90;;;;;;5077352;28;20043;-75
2022/04/18 10:59:32;;;;;;;8.80;6.10;;;20.70;40.50;;;;;;5058277;28;20044;-73
2022/04/18 11:02:01;;;;;;;3.72;2.67;;;20.80;39.20;;;;;;5052418;28;20396;-74
2022/04/18 11:04:28;;;;;;;6.28;3.28;;;20.90;38.70;;;;;;5070318;28;20032;-76
2022/04/18 11:07:05;;;;;;;9.90;5.32;;;20.80;38.30;;;;;;5070044;28;20074;-71
2022/04/18 11:09:42;;;;;;;11.43;8.80;;;20.80;37.30;;;;;;5071351;28;20361;-77
2022/04/18 11:12:12;;;;;;;10.98;7.85;;;20.80;37.80;;;;;;5071656;28;20032;-75
2022/04/18 11:14:37;;;;;;;6.50;4.22;;;20.90;37.50;;;;;;5071202;28;20032;-73
2022/04/18 11:17:05;;;;;;;5.53;3.50;;;21.00;37.30;;;;;;5060289;28;20032;-76
2022/04/18 11:19:38;;;;;;;9.50;7.75;;;21.00;37.30;;;;;;5063828;28;20075;-72
2022/04/18 11:22:14;;;;;;;6.18;4.38;;;21.00;37.40;;;;;;5069117;28;20387;-72
2022/04/18 11:24:48;;;;;;;4.35;2.25;;;21.10;37.20;;;;;;5068847;28;20039;-71
2022/04/18 11:27:22;;;;;;;6.07;4.88;;;21.30;37.40;;;;;;5066798;28;20020;-72
2022/04/18 11:29:52;;;;;;;12.25;5.15;;;21.50;36.90;;;;;;5068916;28;20080;-72
2022/04/18 11:32:20;;;;;;;9.52;5.85;;;21.40;36.80;;;;;;5068859;28;20365;-72
2022/04/18 11:34:48;;;;;;;21.48;16.08;;;21.40;36.60;;;;;;5071884;28;20056;-75
2022/04/18 11:37:27;;;;;;;9.60;7.50;;;21.50;36.80;;;;;;5051768;28;20055;-73
2022/04/18 11:39:58;;;;;;;8.27;5.43;;;21.70;36.70;;;;;;5071527;28;20017;-73
2022/04/18 11:42:25;;;;;;;9.98;7.82;;;21.90;37.20;;;;;;5076531;28;20020;-76
2022/04/18 11:44:54;;;;;;;8.10;6.80;;;22.10;36.90;;;;;;5078656;28;20539;-74
2022/04/18 11:47:23;;;;;;;11.32;9.27;;;22.20;36.10;;;;;;5089647;28;20021;-77
2022/04/18 11:49:58;;;;;;;5.05;2.95;;;22.30;35.80;;;;;;5075731;28;20043;-74
2022/04/18 11:52:26;;;;;;;8.30;5.10;;;22.30;35.40;;;;;;5074842;28;20507;-74
2022/04/18 11:55:11;;;;;;;8.07;5.90;;;22.40;35.70;;;;;;5073507;28;20016;-75
2022/04/18 11:57:38;;;;;;;7.10;5.68;;;22.40;34.80;;;;;;5073009;28;20036;-74
2022/04/18 12:00:12;;;;;;;7.65;4.75;;;22.40;35.20;;;;;;5074153;28;20086;-75
2022/04/18 12:08:17;;;;;;;10.10;7.43;;;22.60;34.90;;;;;;5059644;28;20368;-77
2022/04/18 12:10:45;;;;;;;13.68;7.95;;;22.70;34.30;;;;;;5073829;28;20020;-76
2022/04/18 12:13:13;;;;;;;17.58;13.38;;;22.80;33.70;;;;;;5040822;28;20037;-75
2022/04/18 12:15:40;;;;;;;4.75;4.18;;;22.80;33.40;;;;;;5075033;28;20478;-73
2022/04/18 12:18:16;;;;;;;4.93;2.80;;;22.80;33.20;;;;;;5074205;28;20131;-73
2022/04/18 12:20:44;;;;;;;5.95;3.08;;;22.80;33.10;;;;;;5073952;28;20538;-72
2022/04/18 12:23:15;;;;;;;3.47;2.60;;;22.90;32.70;;;;;;5062391;28;20037;-73
2022/04/18 12:25:47;;;;;;;3.42;2.30;;;22.80;32.50;;;;;;5062071;28;20063;-76
2022/04/18 12:28:14;;;;;;;2.92;2.60;;;22.80;32.60;;;;;;5069638;28;20414;-73
2022/04/18 12:30:40;;;;;;;3.10;2.40;;;22.90;33.30;;;;;;5068411;28;20029;-74
2022/04/18 12:33:12;;;;;;;4.35;2.92;;;23.00;33.00;;;;;;5062480;28;20024;-72
2022/04/18 12:35:43;;;;;;;3.35;2.42;;;23.20;32.80;;;;;;5069689;28;20348;-73
2022/04/18 12:38:12;;;;;;;2.47;2.20;;;23.20;31.80;;;;;;5066846;28;20060;-75
2022/04/18 12:40:39;;;;;;;14.43;11.02;;;23.30;32.20;;;;;;5059035;28;20021;-74
2022/04/18 12:43:07;;;;;;;10.45;8.60;;;23.40;31.80;;;;;;5049304;28;20395;-75
2022/04/18 12:45:55;;;;;;;8.48;5.97;;;23.30;31.40;;;;;;5074280;28;20028;-76
2022/04/18 12:48:28;;;;;;;5.65;3.10;;;23.30;30.60;;;;;;5060395;28;20028;-74
2022/04/18 12:50:55;;;;;;;3.15;2.53;;;23.20;30.50;;;;;;5072303;28;20445;-73
2022/04/18 12:53:22;;;;;;;3.20;2.90;;;23.10;30.90;;;;;;5067268;28;20052;-73
2022/04/18 12:56:06;;;;;;;4.22;3.10;;;23.10;30.80;;;;;;5073247;28;20028;-71
2022/04/18 12:58:39;;;;;;;4.72;3.45;;;23.30;31.00;;;;;;5073125;28;20025;-71
2022/04/18 13:01:06;;;;;;;3.65;3.17;;;23.10;30.50;;;;;;5074120;28;20496;-71
2022/04/18 13:03:41;;;;;;;4.05;3.47;;;23.00;31.20;;;;;;5074626;28;20020;-72
2022/04/18 13:06:07;;;;;;;4.28;3.30;;;23.00;31.20;;;;;;5074136;28;20116;-73
2022/04/18 13:08:37;;;;;;;3.95;3.05;;;23.00;31.70;;;;;;5056832;28;20048;-72
2022/04/18 13:11:03;;;;;;;3.80;3.40;;;23.20;31.90;;;;;;5074134;28;20028;-72
2022/04/18 13:13:28;;;;;;;5.05;4.35;;;23.30;32.20;;;;;;5073376;28;20055;-71
2022/04/18 13:15:54;;;;;;;10.68;8.30;;;23.30;32.60;;;;;;5073194;28;20053;-72
2022/04/18 13:18:21;;;;;;;7.55;5.90;;;23.40;32.80;;;;;;5072891;28;20048;-72
2022/04/18 13:20:47;;;;;;;6.65;4.20;;;23.40;32.60;;;;;;5073530;28;20077;-72